Time;durP1;ratioP1;P1;durP2;ratioP2;P2;SDS_P1;SDS_P2;PMS_P1;PMS_P2;Temp;Humidity;BMP_temperature;BMP_pressure;BME280_temperature;BME280_humidity;BME280_pressure;Samples;Min_cycle;Max_cycle;Signal;HPM_P1;HPM_P2
2021/05/28 00:02:08;;;;;;;12.63;5.00;;;9.00;92.80;;;;;;4955914;29;20028;-80
2021/05/28 00:04:34;;;;;;;11.45;4.15;;;9.00;92.50;;;;;;4954839;29;20031;-79
2021/05/28 00:07:00;;;;;;;17.40;5.07;;;9.00;92.50;;;;;;4956749;28;20034;-79
2021/05/28 00:09:26;;;;;;;9.50;3.58;;;9.00;92.60;;;;;;4975814;28;20031;-80
2021/05/28 00:11:52;;;;;;;9.77;5.40;;;9.00;92.70;;;;;;4958490;28;20027;-81
2021/05/28 00:14:18;;;;;;;16.80;4.40;;;9.00;92.70;;;;;;4958419;28;20023;-80
2021/05/28 00:16:44;;;;;;;9.25;3.88;;;9.00;93.10;;;;;;4958653;28;20114;-81
2021/05/28 00:19:09;;;;;;;11.75;5.80;;;9.00;92.90;;;;;;4958436;28;20460;-81
2021/05/28 00:21:36;;;;;;;13.85;5.90;;;9.00;92.90;;;;;;4957943;28;20027;-79
2021/05/28 00:24:02;;;;;;;13.60;5.22;;;9.00;92.90;;;;;;4957033;28;20113;-80
2021/05/28 00:26:28;;;;;;;18.70;7.13;;;9.00;93.00;;;;;;4957532;28;20027;-80
2021/05/28 00:28:53;;;;;;;13.95;6.25;;;9.00;93.00;;;;;;4957601;28;20030;-80
2021/05/28 00:31:20;;;;;;;17.30;6.20;;;9.00;93.00;;;;;;4961051;28;20023;-78
2021/05/28 00:33:46;;;;;;;10.88;5.50;;;8.90;93.00;;;;;;4966021;28;20015;-81
2021/05/28 00:36:12;;;;;;;16.48;5.35;;;9.00;93.00;;;;;;4960615;28;20022;-82
2021/05/28 00:38:38;;;;;;;15.80;6.65;;;9.00;93.00;;;;;;4957832;28;20534;-78
2021/05/28 00:41:04;;;;;;;14.82;5.13;;;8.90;93.00;;;;;;4957199;28;20059;-80
2021/05/28 00:43:30;;;;;;;13.23;5.50;;;8.90;93.00;;;;;;4957409;28;20030;-80
2021/05/28 00:45:56;;;;;;;17.88;6.97;;;8.90;93.00;;;;;;4958454;28;20035;-81
2021/05/28 00:48:22;;;;;;;12.20;6.38;;;8.80;93.00;;;;;;4959514;28;20116;-81
2021/05/28 00:50:48;;;;;;;13.68;5.03;;;8.80;93.00;;;;;;4957464;28;20113;-80
2021/05/28 00:53:14;;;;;;;18.05;6.00;;;8.80;93.00;;;;;;4960875;28;20459;-81
2021/05/28 00:55:40;;;;;;;13.98;5.38;;;8.80;93.00;;;;;;4958547;28;20395;-80
2021/05/28 00:58:07;;;;;;;15.98;6.35;;;8.80;93.00;;;;;;4958161;28;20019;-81
2021/05/28 01:00:33;;;;;;;17.15;6.43;;;8.70;93.00;;;;;;4958913;28;20031;-80
2021/05/28 01:02:59;;;;;;;14.40;5.90;;;8.70;93.00;;;;;;4958925;28;20947;-81
2021/05/28 01:05:24;;;;;;;17.15;5.65;;;8.70;93.10;;;;;;4959394;28;20038;-81
2021/05/28 01:07:52;;;;;;;13.32;5.88;;;8.70;93.00;;;;;;4957768;28;20058;-80
2021/05/28 01:10:17;;;;;;;18.83;6.70;;;8.70;93.00;;;;;;4969486;28;20023;-81
2021/05/28 01:12:43;;;;;;;11.38;5.93;;;8.70;93.10;;;;;;4963301;28;20038;-80
2021/05/28 01:15:10;;;;;;;19.30;7.60;;;8.70;93.10;;;;;;4977995;28;20015;-80
2021/05/28 01:17:37;;;;;;;19.15;7.20;;;8.60;93.10;;;;;;4958522;28;20023;-81
2021/05/28 01:20:04;;;;;;;12.05;6.65;;;8.60;93.10;;;;;;4957082;28;20025;-81
2021/05/28 01:22:30;;;;;;;12.75;6.10;;;8.60;93.10;;;;;;4957709;28;20074;-81
2021/05/28 01:25:00;;;;;;;19.10;7.20;;;8.60;93.40;;;;;;4958491;28;20035;-81
2021/05/28 01:27:26;;;;;;;14.23;7.73;;;8.60;93.10;;;;;;4979191;28;20023;-79
2021/05/28 01:29:52;;;;;;;15.35;6.72;;;8.60;93.20;;;;;;4963206;28;20019;-81
2021/05/28 01:32:17;;;;;;;17.38;8.35;;;8.60;93.30;;;;;;4961355;28;20015;-80
2021/05/28 01:34:43;;;;;;;19.00;7.78;;;8.50;93.40;;;;;;4961267;28;20026;-80
2021/05/28 01:37:08;;;;;;;16.38;7.70;;;8.50;93.40;;;;;;4979060;28;20391;-79
2021/05/28 01:39:41;;;;;;;13.52;7.65;;;8.60;93.50;;;;;;4978775;28;20455;-79
2021/05/28 01:42:07;;;;;;;19.98;8.45;;;8.60;93.50;;;;;;4962881;28;20046;-81
2021/05/28 01:44:32;;;;;;;15.43;8.25;;;8.70;93.60;;;;;;4963073;28;20074;-80
2021/05/28 01:47:01;;;;;;;13.05;6.50;;;8.70;93.60;;;;;;4960782;28;20022;-82
2021/05/28 01:49:26;;;;;;;15.05;9.52;;;8.80;93.60;;;;;;4960641;28;20023;-82
2021/05/28 01:51:52;;;;;;;12.93;6.13;;;8.80;93.50;;;;;;4960134;28;20029;-79
2021/05/28 01:54:19;;;;;;;18.70;9.18;;;8.80;93.40;;;;;;4960551;28;20390;-80
2021/05/28 01:56:47;;;;;;;27.50;10.52;;;8.90;93.40;;;;;;4977362;28;20451;-80
2021/05/28 01:59:32;;;;;;;21.77;11.25;;;8.80;93.30;;;;;;4961289;28;20023;-81
2021/05/28 02:02:01;;;;;;;16.33;8.70;;;8.80;93.30;;;;;;4961215;28;20131;-80
2021/05/28 02:04:27;;;;;;;22.67;10.98;;;8.90;93.70;;;;;;4961920;28;20027;-80
2021/05/28 02:06:54;;;;;;;16.58;9.15;;;8.80;93.30;;;;;;4960600;28;20027;-80
2021/05/28 02:09:20;;;;;;;14.02;8.00;;;8.80;93.30;;;;;;4961081;28;20069;-80
2021/05/28 02:11:46;;;;;;;20.75;9.50;;;8.80;93.50;;;;;;4960854;28;20046;-80
2021/05/28 02:14:12;;;;;;;18.05;5.15;;;8.80;93.10;;;;;;4961362;28;20027;-80
2021/05/28 02:16:38;;;;;;;26.30;7.10;;;8.80;92.90;;;;;;4960070;28;20023;-80
2021/05/28 02:19:06;;;;;;;37.63;10.48;;;8.70;92.90;;;;;;4960987;28;20095;-81
2021/05/28 02:21:32;;;;;;;15.82;5.38;;;8.70;92.90;;;;;;4968550;28;20046;-80
2021/05/28 02:23:58;;;;;;;9.68;6.38;;;8.70;92.90;;;;;;4961646;28;20070;-80
2021/05/28 02:26:23;;;;;;;8.30;5.32;;;8.70;93.00;;;;;;4962966;28;20054;-81
2021/05/28 02:28:49;;;;;;;6.93;3.15;;;8.70;93.00;;;;;;4966357;28;20026;-79
2021/05/28 02:31:15;;;;;;;7.53;5.10;;;8.70;93.00;;;;;;4961158;28;20471;-79
2021/05/28 02:33:41;;;;;;;16.27;9.52;;;8.70;93.00;;;;;;4959681;28;20048;-80
2021/05/28 02:36:07;;;;;;;57.63;9.43;;;8.60;93.00;;;;;;4959318;28;20029;-80
2021/05/28 02:38:33;;;;;;;71.88;10.98;;;8.60;92.90;;;;;;4959157;28;20042;-81
2021/05/28 02:40:58;;;;;;;29.55;10.23;;;8.60;93.00;;;;;;4959146;28;20023;-80
2021/05/28 02:43:25;;;;;;;45.45;9.60;;;8.60;93.10;;;;;;4959514;28;20506;-80
2021/05/28 02:45:51;;;;;;;22.05;7.85;;;8.50;93.10;;;;;;4959024;28;20387;-80
2021/05/28 02:48:17;;;;;;;13.65;8.10;;;8.60;93.20;;;;;;4959579;28;20030;-80
2021/05/28 02:50:43;;;;;;;39.17;12.15;;;8.50;93.30;;;;;;4959233;28;20491;-80
2021/05/28 02:53:10;;;;;;;23.55;10.70;;;8.50;93.30;;;;;;4959159;28;20027;-79
2021/05/28 02:55:36;;;;;;;23.05;11.85;;;8.50;93.30;;;;;;4959498;28;20531;-79
2021/05/28 02:58:02;;;;;;;20.73;10.95;;;8.50;93.30;;;;;;4961108;28;20030;-80
2021/05/28 03:00:28;;;;;;;44.38;12.10;;;8.50;93.30;;;;;;4959062;28;20023;-81
2021/05/28 03:02:53;;;;;;;28.40;12.70;;;8.50;93.40;;;;;;4958989;28;20054;-79
2021/05/28 03:05:19;;;;;;;25.58;12.27;;;8.50;93.40;;;;;;4959736;28;20083;-81
2021/05/28 03:07:45;;;;;;;52.05;12.30;;;8.50;93.50;;;;;;4955971;29;20392;-79
2021/05/28 03:10:11;;;;;;;43.83;13.55;;;8.50;93.50;;;;;;4956092;29;20361;-79
2021/05/28 03:12:37;;;;;;;54.78;14.55;;;8.60;93.50;;;;;;4957413;29;20084;-80
2021/05/28 03:15:04;;;;;;;41.70;14.48;;;8.60;93.50;;;;;;4956981;28;20027;-80
2021/05/28 03:17:30;;;;;;;30.45;12.82;;;8.50;93.50;;;;;;4957506;29;20098;-79
2021/05/28 03:19:56;;;;;;;34.78;14.43;;;8.50;93.50;;;;;;4963930;29;20456;-79
2021/05/28 03:22:34;;;;;;;38.72;13.48;;;8.60;93.60;;;;;;4960600;29;20523;-80
2021/05/28 03:25:08;;;;;;;31.42;13.57;;;8.60;93.70;;;;;;4956507;29;20443;-81
2021/05/28 03:27:35;;;;;;;30.52;14.07;;;8.60;93.60;;;;;;4956609;29;20031;-82
2021/05/28 03:30:02;;;;;;;30.40;12.52;;;8.60;93.70;;;;;;4956292;29;20054;-79
2021/05/28 03:32:27;;;;;;;32.50;14.32;;;8.60;93.60;;;;;;4956739;29;20504;-80
2021/05/28 03:34:53;;;;;;;28.95;13.63;;;8.60;93.60;;;;;;4967260;28;20046;-79
2021/05/28 03:37:22;;;;;;;43.45;14.50;;;8.70;93.60;;;;;;4955998;29;20066;-79
2021/05/28 03:39:48;;;;;;;29.45;13.00;;;8.70;93.60;;;;;;4955461;29;20027;-81
2021/05/28 03:42:14;;;;;;;33.45;12.48;;;8.70;93.60;;;;;;4954701;29;20023;-80
2021/05/28 03:44:40;;;;;;;41.10;12.65;;;8.70;93.60;;;;;;4954315;29;20083;-80
2021/05/28 03:47:05;;;;;;;39.50;12.80;;;8.70;93.50;;;;;;4954348;29;20028;-79
2021/05/28 03:49:31;;;;;;;27.48;12.50;;;8.70;93.40;;;;;;4954827;28;20024;-80
2021/05/28 03:51:57;;;;;;;42.08;12.73;;;8.70;93.40;;;;;;4955302;29;20427;-80
2021/05/28 03:54:22;;;;;;;41.88;12.95;;;8.80;93.40;;;;;;4954762;29;20043;-79
2021/05/28 03:56:49;;;;;;;29.95;13.73;;;8.80;93.40;;;;;;4954761;29;20023;-81
2021/05/28 03:59:15;;;;;;;44.63;13.88;;;8.80;93.30;;;;;;4954726;29;20070;-80
2021/05/28 04:01:41;;;;;;;36.55;12.63;;;8.80;93.30;;;;;;4954967;29;20023;-80
2021/05/28 04:04:07;;;;;;;59.38;13.45;;;8.80;93.20;;;;;;4954624;29;20038;-80
2021/05/28 04:06:33;;;;;;;44.13;12.02;;;8.80;93.20;;;;;;4954703;29;20035;-81
2021/05/28 04:08:58;;;;;;;28.23;12.68;;;8.80;93.20;;;;;;4954730;29;20130;-81
2021/05/28 04:11:24;;;;;;;62.35;12.48;;;8.80;93.20;;;;;;4957805;29;20027;-81
2021/05/28 04:13:50;;;;;;;24.92;9.70;;;8.90;93.30;;;;;;4954500;28;20035;-79
2021/05/28 04:16:16;;;;;;;53.83;13.10;;;8.90;93.10;;;;;;4954626;29;20015;-82
2021/05/28 04:18:41;;;;;;;36.35;10.43;;;8.90;93.10;;;;;;4955068;29;20426;-81
2021/05/28 04:21:07;;;;;;;67.63;13.30;;;9.00;93.00;;;;;;4955927;29;20047;-81
2021/05/28 04:23:33;;;;;;;56.15;14.15;;;9.00;93.00;;;;;;4961148;29;20062;-80
2021/05/28 04:26:00;;;;;;;69.70;13.48;;;9.00;93.00;;;;;;4961025;29;20078;-81
2021/05/28 04:28:27;;;;;;;46.60;12.35;;;9.10;93.10;;;;;;4958091;29;20027;-80
2021/05/28 04:30:53;;;;;;;39.88;10.73;;;9.10;93.00;;;;;;4956402;29;20024;-80
2021/05/28 04:33:19;;;;;;;41.65;12.02;;;9.10;92.90;;;;;;4956253;29;20027;-81
2021/05/28 04:35:45;;;;;;;39.08;12.07;;;9.10;92.80;;;;;;4955398;29;20110;-79
2021/05/28 04:38:10;;;;;;;33.13;12.93;;;9.10;92.80;;;;;;4954504;29;20420;-80
2021/05/28 04:40:36;;;;;;;23.88;10.43;;;9.10;92.80;;;;;;4954399;29;20043;-81
2021/05/28 04:43:01;;;;;;;55.83;12.30;;;9.10;92.80;;;;;;4954434;29;20027;-80
2021/05/28 04:45:27;;;;;;;33.58;11.98;;;9.20;92.90;;;;;;4955305;29;20356;-81
2021/05/28 04:47:54;;;;;;;19.40;10.65;;;9.20;93.00;;;;;;4962897;29;20126;-80
2021/05/28 04:50:19;;;;;;;23.52;12.05;;;9.20;93.00;;;;;;4954704;29;20035;-81
2021/05/28 04:52:46;;;;;;;8.57;4.22;;;9.20;92.90;;;;;;4954893;29;20015;-81
2021/05/28 04:55:12;;;;;;;22.75;11.85;;;9.20;92.70;;;;;;4954384;29;20059;-80
2021/05/28 04:57:38;;;;;;;25.23;12.23;;;9.30;92.60;;;;;;4954319;29;20020;-79
2021/05/28 05:00:05;;;;;;;19.40;11.77;;;9.30;92.60;;;;;;4954432;29;20067;-80
2021/05/28 05:02:31;;;;;;;29.13;12.63;;;9.30;92.70;;;;;;4953928;28;20019;-80
2021/05/28 05:04:56;;;;;;;32.78;10.40;;;9.30;92.80;;;;;;4956542;28;20122;-81
2021/05/28 05:07:22;;;;;;;34.17;11.52;;;9.30;92.70;;;;;;4960720;28;20519;-81
2021/05/28 05:09:48;;;;;;;24.63;9.20;;;9.40;92.60;;;;;;4958557;28;20030;-81
2021/05/28 05:12:13;;;;;;;10.75;5.63;;;9.40;92.50;;;;;;4957669;28;20030;-81
2021/05/28 05:14:39;;;;;;;26.45;10.02;;;9.40;92.30;;;;;;4957563;28;20045;-81
2021/05/28 05:17:05;;;;;;;23.10;10.30;;;9.40;92.60;;;;;;4957329;28;20074;-81
2021/05/28 05:19:30;;;;;;;19.38;12.45;;;9.40;92.30;;;;;;4958163;28;20031;-80
2021/05/28 05:21:56;;;;;;;23.38;10.88;;;9.40;92.40;;;;;;4958218;28;20031;-80
2021/05/28 05:24:21;;;;;;;20.15;11.23;;;9.50;92.40;;;;;;4972421;28;20079;-81
2021/05/28 05:26:47;;;;;;;20.38;10.75;;;9.60;92.20;;;;;;4965166;28;20467;-82
2021/05/28 05:29:13;;;;;;;18.73;11.52;;;9.50;92.20;;;;;;4960750;28;20066;-81
2021/05/28 05:31:40;;;;;;;17.15;10.73;;;9.60;92.30;;;;;;4957730;28;20428;-81
2021/05/28 05:34:06;;;;;;;21.40;11.10;;;9.70;92.20;;;;;;4959056;28;20151;-80
2021/05/28 05:36:33;;;;;;;27.17;11.00;;;9.70;92.10;;;;;;4958002;28;20022;-79
2021/05/28 05:38:58;;;;;;;18.40;10.50;;;9.80;92.00;;;;;;4957922;28;20049;-80
2021/05/28 05:41:27;;;;;;;16.90;9.73;;;9.80;91.90;;;;;;4957716;28;20491;-80
2021/05/28 05:43:53;;;;;;;19.85;9.50;;;9.80;91.60;;;;;;4958429;28;20039;-80
2021/05/28 05:46:19;;;;;;;13.88;8.57;;;9.80;91.60;;;;;;4958815;28;20387;-80
2021/05/28 05:48:44;;;;;;;18.33;9.32;;;9.80;91.40;;;;;;4957252;28;20074;-80
2021/05/28 05:51:10;;;;;;;16.35;10.10;;;9.80;91.40;;;;;;4956693;28;20499;-79
2021/05/28 05:53:36;;;;;;;19.35;9.32;;;9.80;91.50;;;;;;4956860;28;20062;-80
2021/05/28 05:56:02;;;;;;;17.67;10.70;;;9.80;91.50;;;;;;4957710;28;20026;-80
2021/05/28 05:58:27;;;;;;;12.27;7.97;;;9.90;91.70;;;;;;4957999;28;20038;-80
2021/05/28 06:00:53;;;;;;;13.02;8.70;;;10.10;91.70;;;;;;4957620;28;20459;-80
2021/05/28 06:03:19;;;;;;;13.00;9.10;;;10.10;91.40;;;;;;4956062;28;20027;-79
2021/05/28 06:05:47;;;;;;;14.65;8.57;;;10.20;91.20;;;;;;4956725;28;20391;-80
2021/05/28 06:08:16;;;;;;;12.23;9.18;;;10.30;91.10;;;;;;4956592;28;20051;-80
2021/05/28 06:10:44;;;;;;;12.40;8.23;;;10.30;90.80;;;;;;4957275;28;20050;-80
2021/05/28 06:13:10;;;;;;;15.15;9.05;;;10.40;90.70;;;;;;4958994;28;20452;-81
2021/05/28 06:15:36;;;;;;;12.40;8.73;;;10.50;90.40;;;;;;4961579;28;20033;-80
2021/05/28 06:18:02;;;;;;;15.20;9.88;;;10.50;90.50;;;;;;4965201;28;20037;-81
2021/05/28 06:20:28;;;;;;;12.55;8.73;;;10.60;90.50;;;;;;4970424;28;20394;-80
2021/05/28 06:22:56;;;;;;;11.52;9.07;;;10.70;90.30;;;;;;4968905;28;20077;-80
2021/05/28 06:25:22;;;;;;;11.80;8.60;;;10.70;90.40;;;;;;4960965;28;20065;-80
2021/05/28 06:27:47;;;;;;;9.75;6.72;;;10.90;90.10;;;;;;4960947;28;20448;-81
2021/05/28 06:30:14;;;;;;;13.70;9.35;;;10.90;89.80;;;;;;4960453;28;20030;-81
2021/05/28 06:32:40;;;;;;;11.02;8.43;;;10.90;89.80;;;;;;4960402;28;20030;-80
2021/05/28 06:35:06;;;;;;;10.80;8.80;;;11.00;89.60;;;;;;4966430;28;20031;-81
2021/05/28 06:37:32;;;;;;;12.85;8.55;;;11.00;89.00;;;;;;4962906;28;20042;-81
2021/05/28 06:39:58;;;;;;;12.20;8.80;;;11.00;89.40;;;;;;4960910;28;20033;-82
2021/05/28 06:42:23;;;;;;;12.18;8.65;;;11.10;88.10;;;;;;4959814;28;20113;-79
2021/05/28 06:44:49;;;;;;;12.82;9.20;;;11.10;89.10;;;;;;4959912;28;20093;-80
2021/05/28 06:47:16;;;;;;;11.07;8.30;;;11.10;89.00;;;;;;4959601;28;20023;-81
2021/05/28 06:49:43;;;;;;;13.30;9.60;;;11.20;87.80;;;;;;4960073;28;20364;-81
2021/05/28 06:52:09;;;;;;;10.25;8.02;;;11.30;87.40;;;;;;4959858;28;20034;-80
2021/05/28 06:54:35;;;;;;;12.20;8.52;;;11.30;87.40;;;;;;4960116;28;20054;-81
2021/05/28 06:57:01;;;;;;;11.88;8.70;;;11.40;87.40;;;;;;4960645;28;20030;-81
2021/05/28 06:59:26;;;;;;;9.57;7.32;;;11.40;87.30;;;;;;4960389;28;20062;-79
2021/05/28 07:01:55;;;;;;;12.55;8.30;;;11.50;87.20;;;;;;4980513;28;20035;-80
2021/05/28 07:04:21;;;;;;;10.32;7.63;;;11.60;86.50;;;;;;4959438;28;20046;-80
2021/05/28 07:06:47;;;;;;;10.05;7.03;;;11.70;86.30;;;;;;4960704;28;20023;-80
2021/05/28 07:09:16;;;;;;;10.60;7.38;;;11.80;86.40;;;;;;4959859;28;20114;-80
2021/05/28 07:11:41;;;;;;;7.10;4.72;;;12.00;86.20;;;;;;4961009;28;20023;-80
2021/05/28 07:14:07;;;;;;;9.82;7.07;;;12.20;85.80;;;;;;4959947;28;20379;-80
2021/05/28 07:16:33;;;;;;;10.77;7.47;;;12.30;85.40;;;;;;4959839;28;20159;-80
2021/05/28 07:18:59;;;;;;;8.40;5.65;;;12.50;83.90;;;;;;4959934;28;20027;-80
2021/05/28 07:21:26;;;;;;;9.88;5.90;;;12.70;84.20;;;;;;4958783;28;20034;-80
2021/05/28 07:23:51;;;;;;;7.75;6.13;;;12.90;84.00;;;;;;4959323;28;20031;-80
2021/05/28 07:26:17;;;;;;;11.35;7.00;;;13.20;82.70;;;;;;4959740;28;20081;-80
2021/05/28 07:28:43;;;;;;;8.88;5.57;;;13.30;80.70;;;;;;4961575;28;20045;-80
2021/05/28 07:31:09;;;;;;;8.25;5.80;;;13.30;81.10;;;;;;4962888;28;20035;-81
2021/05/28 07:33:34;;;;;;;8.60;6.40;;;13.50;80.30;;;;;;4976963;28;20019;-81
2021/05/28 07:36:02;;;;;;;8.88;6.05;;;13.70;79.90;;;;;;4962516;28;20475;-81
2021/05/28 07:38:27;;;;;;;7.30;5.00;;;13.70;78.80;;;;;;4957321;28;20118;-82
2021/05/28 07:40:53;;;;;;;9.38;6.93;;;13.70;79.00;;;;;;4949792;28;20089;-80
2021/05/28 07:43:19;;;;;;;8.70;6.35;;;13.70;77.90;;;;;;4940309;29;20506;-81
2021/05/28 07:45:49;;;;;;;9.63;7.47;;;13.70;78.70;;;;;;4939635;29;20127;-80
2021/05/28 07:48:15;;;;;;;8.98;6.78;;;13.80;78.30;;;;;;4939649;29;20046;-81
2021/05/28 07:50:47;;;;;;;8.98;6.65;;;13.90;78.80;;;;;;4940648;29;20031;-80
2021/05/28 07:53:24;;;;;;;10.27;6.97;;;14.00;77.80;;;;;;4940475;29;20023;-81
2021/05/28 07:55:51;;;;;;;6.95;5.07;;;14.00;77.20;;;;;;4939519;29;20031;-82
2021/05/28 07:58:17;;;;;;;9.55;6.50;;;14.00;77.60;;;;;;4940045;29;20035;-83
2021/05/28 08:00:42;;;;;;;9.50;7.13;;;14.10;77.70;;;;;;4940764;29;20023;-82
2021/05/28 08:03:08;;;;;;;8.27;5.25;;;14.20;76.70;;;;;;4939911;29;20054;-81
2021/05/28 08:05:34;;;;;;;11.02;8.27;;;14.40;75.90;;;;;;4940119;29;20039;-82
2021/05/28 08:08:00;;;;;;;10.60;7.18;;;14.60;77.00;;;;;;4942369;29;20047;-81
2021/05/28 08:10:29;;;;;;;9.68;7.10;;;14.80;75.30;;;;;;4943379;29;20050;-81
2021/05/28 08:12:55;;;;;;;11.45;7.53;;;15.10;73.30;;;;;;4955562;28;20039;-81
2021/05/28 08:15:21;;;;;;;9.02;6.70;;;15.10;72.70;;;;;;4948195;29;20023;-81
2021/05/28 08:17:48;;;;;;;11.25;7.47;;;15.20;71.60;;;;;;4946670;29;20100;-81
2021/05/28 08:20:14;;;;;;;12.98;8.07;;;15.20;70.90;;;;;;4944079;29;20027;-82
2021/05/28 08:22:40;;;;;;;9.38;6.88;;;15.20;70.00;;;;;;4939140;29;20172;-81
2021/05/28 08:25:06;;;;;;;10.90;7.40;;;15.30;70.60;;;;;;4939527;29;20168;-81
2021/05/28 08:27:32;;;;;;;12.27;6.90;;;15.30;70.20;;;;;;4947543;28;20031;-82
2021/05/28 08:29:58;;;;;;;9.93;7.03;;;15.30;70.90;;;;;;4948577;28;20034;-83
2021/05/28 08:32:24;;;;;;;8.95;6.30;;;15.50;73.20;;;;;;4957486;28;20094;-83
2021/05/28 08:34:50;;;;;;;8.57;6.07;;;15.90;71.00;;;;;;4947247;29;20126;-82
2021/05/28 08:37:16;;;;;;;9.95;6.63;;;16.00;70.20;;;;;;4958647;28;20049;-82
2021/05/28 08:39:41;;;;;;;9.88;6.10;;;16.10;68.60;;;;;;4939678;29;20024;-81
2021/05/28 08:42:10;;;;;;;8.85;7.13;;;16.20;68.40;;;;;;4944073;28;20018;-82
2021/05/28 08:44:36;;;;;;;10.75;6.53;;;16.40;65.80;;;;;;4953621;29;20086;-81
2021/05/28 08:47:03;;;;;;;12.43;6.80;;;16.60;66.30;;;;;;4937744;29;20043;-82
2021/05/28 08:49:29;;;;;;;9.35;6.90;;;16.80;66.10;;;;;;4954495;28;20027;-81
2021/05/28 08:51:57;;;;;;;8.82;5.97;;;16.90;65.80;;;;;;4953785;29;20070;-82
2021/05/28 08:54:23;;;;;;;11.20;8.07;;;17.00;65.20;;;;;;4946396;28;20019;-82
2021/05/28 08:56:50;;;;;;;8.45;4.90;;;17.10;63.20;;;;;;4957383;28;20049;-81
2021/05/28 08:59:17;;;;;;;10.82;7.13;;;17.20;65.30;;;;;;4954098;29;20023;-79
2021/05/28 09:01:42;;;;;;;13.75;6.47;;;17.20;62.60;;;;;;4974135;28;20038;-83
2021/05/28 09:04:10;;;;;;;10.18;6.72;;;17.20;63.20;;;;;;4953494;28;20031;-81
2021/05/28 09:06:41;;;;;;;9.05;6.47;;;17.40;64.30;;;;;;4948525;28;20031;-81
2021/05/28 09:09:09;;;;;;;8.65;5.63;;;17.60;63.00;;;;;;4956987;28;20050;-82
2021/05/28 09:11:49;;;;;;;7.05;4.95;;;17.80;64.10;;;;;;4941091;28;20031;-81
2021/05/28 09:14:29;;;;;;;8.97;4.47;;;18.00;62.90;;;;;;4949723;29;20114;-80
2021/05/28 09:16:54;;;;;;;8.27;5.75;;;18.00;61.80;;;;;;4952224;28;20031;-80
2021/05/28 09:19:23;;;;;;;8.20;4.85;;;18.00;61.60;;;;;;4954974;28;20035;-81
2021/05/28 09:22:09;;;;;;;8.18;3.95;;;18.10;62.50;;;;;;4954935;29;20070;-81
2021/05/28 09:24:38;;;;;;;9.30;4.85;;;18.30;60.70;;;;;;4949964;28;20119;-80
2021/05/28 09:27:23;;;;;;;8.38;4.47;;;18.40;58.50;;;;;;4958237;28;20094;-82
2021/05/28 09:30:10;;;;;;;9.02;4.68;;;18.50;56.70;;;;;;4957675;28;20030;-81
2021/05/28 09:32:48;;;;;;;7.22;3.80;;;18.50;58.20;;;;;;4958633;28;20479;-81
2021/05/28 09:35:20;;;;;;;6.88;3.60;;;18.70;57.20;;;;;;4958289;28;20114;-80
2021/05/28 09:37:52;;;;;;;6.35;2.75;;;18.80;53.70;;;;;;4963080;28;20026;-80
2021/05/28 09:40:21;;;;;;;5.22;2.15;;;18.90;55.70;;;;;;4969209;28;20093;-81
2021/05/28 09:42:47;;;;;;;7.15;3.30;;;18.90;55.70;;;;;;4956862;28;20123;-80
2021/05/28 09:45:20;;;;;;;5.75;3.05;;;18.80;57.10;;;;;;4956065;28;20457;-80
2021/05/28 09:47:46;;;;;;;7.22;2.90;;;19.00;56.80;;;;;;4957083;28;20073;-81
2021/05/28 09:50:14;;;;;;;5.55;3.13;;;19.20;56.20;;;;;;4977689;28;20027;-81
2021/05/28 09:52:40;;;;;;;5.78;2.50;;;19.40;52.90;;;;;;4960729;28;20425;-80
2021/05/28 09:55:08;;;;;;;4.75;2.60;;;19.60;54.60;;;;;;4961193;28;20022;-80
2021/05/28 09:57:33;;;;;;;6.35;2.58;;;19.80;53.90;;;;;;4960910;28;20418;-81
2021/05/28 10:00:00;;;;;;;5.57;2.78;;;19.90;57.10;;;;;;4960593;28;20026;-80
2021/05/28 10:05:24;;;;;;;5.95;3.45;;;20.10;55.40;;;;;;4943270;28;20035;-80
2021/05/28 10:07:51;;;;;;;6.70;3.78;;;20.30;52.50;;;;;;4967785;28;20070;-82
2021/05/28 10:10:18;;;;;;;4.93;2.45;;;20.30;50.30;;;;;;4978239;28;20301;-80
2021/05/28 10:12:49;;;;;;;8.20;4.55;;;20.50;54.10;;;;;;4965398;28;20026;-81
2021/05/28 10:15:15;;;;;;;5.78;3.28;;;20.50;52.30;;;;;;4957961;28;20034;-84
2021/05/28 10:17:41;;;;;;;7.45;3.53;;;20.50;55.90;;;;;;4957658;29;20027;-80
2021/05/28 10:20:07;;;;;;;4.93;2.40;;;20.40;54.10;;;;;;4967800;28;20030;-80
2021/05/28 10:22:33;;;;;;;6.10;4.05;;;20.40;54.60;;;;;;4960066;28;20037;-79
2021/05/28 10:25:01;;;;;;;5.00;2.13;;;20.40;53.20;;;;;;4957427;28;20027;-81
2021/05/28 10:27:29;;;;;;;5.57;2.88;;;20.40;55.20;;;;;;4956370;28;20059;-80
2021/05/28 10:29:55;;;;;;;6.57;3.10;;;20.20;53.50;;;;;;4949061;28;20014;-82
2021/05/28 10:32:21;;;;;;;6.43;3.17;;;20.20;47.70;;;;;;4957255;28;20031;-81
2021/05/28 10:35:09;;;;;;;6.50;3.10;;;20.20;50.70;;;;;;4941637;29;20479;-80
2021/05/28 10:37:35;;;;;;;4.55;2.35;;;20.30;53.90;;;;;;4949192;28;20031;-83
2021/05/28 10:40:03;;;;;;;6.78;3.33;;;20.30;51.00;;;;;;4960245;28;20046;-79
2021/05/28 10:42:28;;;;;;;7.38;3.83;;;20.50;51.50;;;;;;4956729;29;20023;-80
2021/05/28 10:44:54;;;;;;;8.68;5.28;;;20.70;52.60;;;;;;4957952;28;20098;-81
2021/05/28 10:47:21;;;;;;;6.53;3.15;;;20.90;50.00;;;;;;4965910;28;20352;-82
2021/05/28 10:49:48;;;;;;;4.70;2.90;;;21.00;52.60;;;;;;4949068;28;20094;-82
2021/05/28 10:52:35;;;;;;;6.30;2.20;;;21.00;50.20;;;;;;4960265;28;20054;-81
2021/05/28 10:55:11;;;;;;;2.78;1.50;;;21.00;50.90;;;;;;4942077;29;20507;-81
2021/05/28 10:57:53;;;;;;;3.45;1.65;;;21.20;52.80;;;;;;4972587;28;20019;-82
2021/05/28 11:00:30;;;;;;;2.60;1.17;;;21.20;47.20;;;;;;4943855;28;20451;-82
2021/05/28 11:03:00;;;;;;;4.80;1.70;;;21.30;51.30;;;;;;4955993;29;20019;-82
2021/05/28 11:05:58;;;;;;;;;;;21.50;47.00;;;;;;4940139;29;20438;-79
2021/05/28 11:08:42;;;;;;;6.18;2.05;;;21.50;47.70;;;;;;4930876;29;19922;-82
2021/05/28 11:11:28;;;;;;;2.90;1.65;;;21.50;41.80;;;;;;4936844;29;20050;-81
2021/05/28 11:13:57;;;;;;;3.15;1.50;;;21.50;44.80;;;;;;4936724;29;20031;-82
2021/05/28 11:16:23;;;;;;;3.17;1.60;;;21.70;44.50;;;;;;4937510;29;20539;-81
2021/05/28 11:18:49;;;;;;;5.75;2.40;;;22.00;48.60;;;;;;4937039;29;20110;-82
2021/05/28 11:21:26;;;;;;;5.28;2.78;;;22.30;51.60;;;;;;4938199;29;20034;-79
2021/05/28 11:23:53;;;;;;;4.82;2.63;;;22.40;52.90;;;;;;4938222;29;20061;-81
2021/05/28 11:26:27;;;;;;;5.55;2.38;;;22.40;43.50;;;;;;4937590;29;20023;-82
2021/05/28 11:28:56;;;;;;;3.42;2.00;;;22.40;46.90;;;;;;4937225;29;20107;-81
2021/05/28 11:31:25;;;;;;;5.00;2.05;;;22.40;44.50;;;;;;4937461;29;20019;-81
2021/05/28 11:33:59;;;;;;;4.38;2.33;;;22.60;49.20;;;;;;4937839;29;20358;-84
2021/05/28 11:36:27;;;;;;;3.53;1.45;;;22.70;52.70;;;;;;4938735;29;20042;-81
2021/05/28 11:38:55;;;;;;;5.72;2.55;;;22.70;55.50;;;;;;4937949;29;20028;-83
2021/05/28 11:41:21;;;;;;;4.30;1.83;;;22.90;51.00;;;;;;4937443;29;20035;-81
2021/05/28 11:43:49;;;;;;;4.63;1.55;;;23.00;50.70;;;;;;4941093;29;20349;-80
2021/05/28 11:46:15;;;;;;;5.72;2.35;;;23.10;56.00;;;;;;4953981;29;20384;-80
2021/05/28 11:48:41;;;;;;;4.70;2.47;;;23.10;48.10;;;;;;4939496;29;20024;-82
2021/05/28 11:51:07;;;;;;;4.47;1.98;;;22.80;45.30;;;;;;4939234;29;20031;-82
2021/05/28 11:53:35;;;;;;;6.18;2.33;;;22.70;53.80;;;;;;4937915;29;20460;-81
2021/05/28 11:56:02;;;;;;;5.85;2.75;;;22.80;47.60;;;;;;4936625;29;20059;-80
2021/05/28 11:58:32;;;;;;;4.75;2.38;;;22.70;43.10;;;;;;4935723;29;20531;-81
2021/05/28 12:01:00;;;;;;;5.32;2.33;;;22.70;45.20;;;;;;4936647;29;20071;-82
2021/05/28 12:03:26;;;;;;;4.50;2.00;;;22.70;41.90;;;;;;4940119;29;20164;-82
2021/05/28 12:05:53;;;;;;;4.55;2.22;;;22.90;47.70;;;;;;4956396;28;20500;-82
2021/05/28 12:08:29;;;;;;;5.07;2.40;;;23.00;51.10;;;;;;4953807;28;20047;-82
2021/05/28 12:10:57;;;;;;;5.90;2.53;;;23.00;45.70;;;;;;4956144;28;20030;-82
2021/05/28 12:13:27;;;;;;;3.95;2.35;;;23.00;43.60;;;;;;4941650;29;20044;-82
2021/05/28 12:16:04;;;;;;;5.00;2.50;;;23.00;42.90;;;;;;4950966;29;20031;-82
2021/05/28 12:18:35;;;;;;;4.90;2.47;;;23.10;42.70;;;;;;4940652;29;20106;-81
2021/05/28 12:21:17;;;;;;;3.58;1.60;;;23.30;40.30;;;;;;4951146;29;20028;-81
2021/05/28 12:23:48;;;;;;;3.78;2.00;;;23.40;44.30;;;;;;4935202;29;20016;-82
2021/05/28 12:26:21;;;;;;;3.30;1.80;;;23.30;47.20;;;;;;4935780;29;20038;-83
2021/05/28 12:28:55;;;;;;;2.85;1.50;;;23.00;48.30;;;;;;4935915;29;20034;-82
2021/05/28 12:31:28;;;;;;;2.80;1.30;;;23.00;51.40;;;;;;4948088;29;20094;-81
2021/05/28 12:33:57;;;;;;;4.60;1.90;;;23.20;52.80;;;;;;4955578;29;20027;-81
2021/05/28 12:36:39;;;;;;;3.25;1.25;;;23.40;41.80;;;;;;4955948;28;20027;-82
2021/05/28 12:39:10;;;;;;;3.67;1.52;;;23.30;54.60;;;;;;4961406;29;20058;-83
2021/05/28 12:41:38;;;;;;;2.58;0.98;;;23.30;48.80;;;;;;4963749;29;20034;-80
2021/05/28 12:44:05;;;;;;;4.78;1.50;;;23.30;56.00;;;;;;4955635;29;20067;-80
2021/05/28 12:46:38;;;;;;;3.45;1.73;;;23.30;52.30;;;;;;4955128;28;20011;-82
2021/05/28 12:49:06;;;;;;;4.28;1.58;;;23.20;43.90;;;;;;4956443;28;20034;-81